East Texas Regional Airport
KGGG : now visible

Airfield :











YOU CAN JOIN US ON...

 
LOGIN :

Register | Disclaimer

   EN    FR    IT 

 









Legend :    VFR   Marginal VFR   IFR   Intensive IFR   Very Intensive IFR
Visi :
Ceiling :
>= 8 km
>= 3000ft
5 to 8 km
1000 to 3000 ft
1500m to 5 km
500 to 1000 ft
800 to 1500m
200 to 500 ft
< 800m
< 200 ft
Symbols :   Thunderstorms  Fog  Heavy snow  Heavy precipitations  Wind > 20 kt






- Airport Elevation : 365 ft
- IATA code : GGG


KGGG - East Texas Regional

CURRENT METAR :
  • 250253Z AUTO 00000KT 10SM OVC100 21/19 A2978 RMK AO2 RAE0154 SLP079 P0000 60000 T02060194 53024 TSNO

EXPIRED METARs :
  • 250153Z COR 14003KT 10SM CLR 21/19 A2976 RMK AO2 RAB52 SLP071 P0000 T02060194
  • 250053Z 14005KT 10SM CLR 21/19 A2972 RMK AO2 SLP060 T02110194

TAF KGGG
Valid from the 25 at 00:00 until the 26 at 00:00 UTC


242345Z 2500/2524 29005KT P6SM FEW013
FM250400 20012G18KT 3SM TSRA BR OVC020CB
FM250700 23010KT 5SM SHRA VCTS OVC015CB
FM251200 18012KT P6SM SHRA VCTS OVC025CB
FM251500 21012KT 4SM BR OVC007
FM251800 22009KT 6SM HZ OVC015
FM252100 26006KT P6SM OVC025
KZFW FIR / North America



MET'MAP, your aeronautical weather chart ! - Copyright ORBIFLY December 2007 - Disclaimer

ORBIFLY MET'MAP TEAM :

Programming & Development : Alexandra Zaïnal
Original concept : Baudouin d'Aumeries
Technical & hardware support : Manuel Goepfert
Assistance : Marc-Olivier Méhu

Contact : metmap@orbifly.com




SOURCES & CREDITS :

   NOAA       Earth
Advisory